createdAt,value
2024-03-20T00:07:04.101Z,15.1
2024-03-20T00:17:13.695Z,14.9
2024-03-20T00:27:23.321Z,14.8
2024-03-20T00:37:33.024Z,14.8
2024-03-20T00:47:42.616Z,14.9
2024-03-20T01:07:47.971Z,15
2024-03-20T01:17:58.566Z,14.8
2024-03-20T01:38:00.960Z,14.4
2024-03-20T01:48:10.472Z,14.5
2024-03-20T01:58:20.168Z,14.3
2024-03-20T02:08:29.690Z,14.4
2024-03-20T02:18:39.154Z,14.3
2024-03-20T02:28:48.971Z,14.1
2024-03-20T02:38:58.557Z,14
2024-03-20T02:49:08.131Z,14.1
2024-03-20T02:59:20.342Z,14.3
2024-03-20T03:09:20.087Z,14.1
2024-03-20T03:19:29.712Z,14
2024-03-20T03:29:39.502Z,13.9
2024-03-20T03:39:49.241Z,13.9
2024-03-20T03:49:58.917Z,13.7
2024-03-20T04:00:08.592Z,13.5
2024-03-20T04:10:18.177Z,13.4
2024-03-20T04:20:27.923Z,13.5
2024-03-20T04:30:37.631Z,13.5
2024-03-20T04:40:47.117Z,13.5
2024-03-20T04:50:56.713Z,13.7
2024-03-20T05:01:06.328Z,13.7
2024-03-20T05:11:15.853Z,13.4
2024-03-20T05:21:25.488Z,13.3
2024-03-20T05:31:35.054Z,13.4
2024-03-20T05:41:44.622Z,13.3
2024-03-20T05:51:54.164Z,13.1
2024-03-20T06:02:03.345Z,13.2
2024-03-20T06:12:12.897Z,13.3
2024-03-20T06:22:22.541Z,13.5
2024-03-20T06:32:31.546Z,13.9
2024-03-20T06:42:41.199Z,13.8
2024-03-20T06:52:50.905Z,13.7
2024-03-20T07:12:55.276Z,14.1
2024-03-20T07:22:55.426Z,14.5
2024-03-20T07:33:04.985Z,14.6
2024-03-20T07:43:07.819Z,14.8
2024-03-20T07:53:18.531Z,15.3
2024-03-20T08:03:19.383Z,15.8
2024-03-20T08:13:29.056Z,16.3
2024-03-20T08:23:30.119Z,17.2
2024-03-20T08:33:42.911Z,17.8
2024-03-20T08:43:54.018Z,18.4
2024-03-20T08:53:53.681Z,19.1
2024-03-20T09:04:03.592Z,19.4
2024-03-20T09:14:13.246Z,19.3
2024-03-20T09:24:23.942Z,19.8
2024-03-20T09:34:27.011Z,19.6
2024-03-20T09:44:32.439Z,20.2
2024-03-20T09:54:37.774Z,21
2024-03-20T10:04:42.359Z,21.2
2024-03-20T10:14:42.676Z,21.2
2024-03-20T10:24:44.867Z,21.3
2024-03-20T10:34:54.872Z,21.4
2024-03-20T10:45:03.764Z,21.4
2024-03-20T10:55:16.010Z,21.4
2024-03-20T11:05:18.812Z,21.6
2024-03-20T11:15:18.856Z,21.3
2024-03-20T11:25:18.523Z,21.4
2024-03-20T11:35:28.434Z,21.7
2024-03-20T11:45:28.767Z,22
2024-03-20T11:55:38.476Z,22.1
2024-03-20T12:05:50.085Z,22.1
2024-03-20T12:15:58.195Z,21.7
2024-03-20T12:26:07.916Z,21.7
2024-03-20T12:36:17.446Z,21.9
2024-03-20T12:46:31.565Z,21.8
2024-03-20T12:56:31.875Z,21.9
2024-03-20T13:06:41.705Z,22
2024-03-20T13:16:45.709Z,21.9
2024-03-20T13:26:46.671Z,22.3
2024-03-20T13:36:59.027Z,21.6
2024-03-20T13:47:00.747Z,21.8
2024-03-20T13:57:03.164Z,21.7
2024-03-20T14:07:13.528Z,21.9
2024-03-20T14:17:13.575Z,21.7
2024-03-20T14:27:19.936Z,21.6
2024-03-20T14:37:20.713Z,21.8
2024-03-20T14:47:20.736Z,21.3
2024-03-20T14:57:21.568Z,21.4
2024-03-20T15:07:31.403Z,21.3
2024-03-20T15:17:32.411Z,21.4
2024-03-20T15:27:32.265Z,21.2
2024-03-20T15:37:42.602Z,21.3
2024-03-20T15:47:44.199Z,21
2024-03-20T15:57:53.867Z,20.8
2024-03-20T16:08:03.505Z,20.6
2024-03-20T16:18:13.125Z,20.6
2024-03-20T16:28:22.920Z,20.4
2024-03-20T16:38:32.508Z,20.2
2024-03-20T16:48:42.229Z,19.9
2024-03-20T16:58:51.829Z,19.8
2024-03-20T17:09:01.530Z,19.6
2024-03-20T17:19:11.155Z,19.7
2024-03-20T17:29:11.138Z,19.1
2024-03-20T17:39:20.760Z,19
2024-03-20T17:49:30.493Z,18.9
2024-03-20T17:59:31.227Z,18.6
2024-03-20T18:09:42.743Z,18.9
2024-03-20T18:19:43.481Z,18.4
2024-03-20T18:29:44.783Z,18.2
2024-03-20T18:39:45.170Z,18
2024-03-20T18:49:49.202Z,17.7
2024-03-20T18:59:58.970Z,17.7
2024-03-20T19:10:08.714Z,17.9
2024-03-20T19:20:09.459Z,17.7
2024-03-20T19:30:11.431Z,17.8
2024-03-20T19:40:16.381Z,17.7
2024-03-20T19:50:27.333Z,17.4
2024-03-20T20:00:32.776Z,17.1
2024-03-20T20:10:30.906Z,17
2024-03-20T20:20:31.455Z,16.9
2024-03-20T20:30:32.319Z,16.9
2024-03-20T20:40:34.544Z,17
2024-03-20T20:50:39.372Z,17
2024-03-20T21:00:40.722Z,16.8
2024-03-20T21:10:40.383Z,17
2024-03-20T21:20:43.593Z,17.2
2024-03-20T21:30:53.088Z,16.9
2024-03-20T21:41:02.730Z,16.5
2024-03-20T21:51:12.349Z,16.7
2024-03-20T22:01:22.081Z,16.1
2024-03-20T22:11:31.716Z,16.6
2024-03-20T22:21:41.382Z,16.8
2024-03-20T22:31:51.012Z,16.8
2024-03-20T22:42:00.657Z,16.8
2024-03-20T22:52:10.230Z,16.7
2024-03-20T23:02:10.792Z,16.6
2024-03-20T23:12:21.631Z,16.5
2024-03-20T23:22:26.462Z,16.2
2024-03-20T23:32:31.218Z,16.2
2024-03-20T23:42:32.871Z,16.1
2024-03-20T23:52:39.712Z,16
